Speegleville, Texas
Current Conditions -  °F | °C
As of 8:51 PM on Sunday 21 Dec 2014 (Local Time) from KACT Reporting Station
Overcast Overcast  
Wind Chill: 53°   Ceiling: 2200
Heat Index: 53°   Visibility: 10mi
Dew Point: 49°   Wind: 15mph
Humidity: 86%   Direction: 170°S
Pressure: 29.82"   Gusts: NA
Location:  31.5356°N, 97.1921°W
Report Text: KACT 220251Z 17013KT 10SM SCT012 OVC022 12/09 A2982 RMK AO2 SLP095 T01170094 58014
Loading
Personal Weather Stations






























Interactive Weather Map New forecast layout! Learn more

10-Day Weather Forecast

Advertisements
Track Severe Weather on mobile